sensor_id;sensor_type;location;lat;lon;timestamp;temperature;humidity
5786;DHT22;2919;48.630;9.000;2023-04-03T00:01:04;3.20;99.90
5786;DHT22;2919;48.630;9.000;2023-04-03T00:03:30;3.30;99.90
5786;DHT22;2919;48.630;9.000;2023-04-03T00:05:56;3.30;99.90
5786;DHT22;2919;48.630;9.000;2023-04-03T00:08:21;3.20;99.90
5786;DHT22;2919;48.630;9.000;2023-04-03T00:10:49;3.20;99.90
5786;DHT22;2919;48.630;9.000;2023-04-03T00:13:14;3.20;99.90
5786;DHT22;2919;48.630;9.000;2023-04-03T00:15:41;3.20;99.90
5786;DHT22;2919;48.630;9.000;2023-04-03T00:18:07;3.30;99.90
5786;DHT22;2919;48.630;9.000;2023-04-03T00:20:33;3.20;99.90
5786;DHT22;2919;48.630;9.000;2023-04-03T00:23:00;3.20;99.90
5786;DHT22;2919;48.630;9.000;2023-04-03T00:25:26;3.20;99.90
5786;DHT22;2919;48.630;9.000;2023-04-03T00:27:52;3.20;99.90
5786;DHT22;2919;48.630;9.000;2023-04-03T00:30:20;3.20;99.90
5786;DHT22;2919;48.630;9.000;2023-04-03T00:32:48;3.20;99.90
5786;DHT22;2919;48.630;9.000;2023-04-03T00:35:13;3.20;99.90
5786;DHT22;2919;48.630;9.000;2023-04-03T00:37:42;3.20;99.90
5786;DHT22;2919;48.630;9.000;2023-04-03T00:40:08;3.20;99.90
5786;DHT22;2919;48.630;9.000;2023-04-03T00:42:36;3.20;99.90
5786;DHT22;2919;48.630;9.000;2023-04-03T00:47:28;3.10;99.90
5786;DHT22;2919;48.630;9.000;2023-04-03T00:49:55;3.10;99.90
5786;DHT22;2919;48.630;9.000;2023-04-03T00:52:25;3.10;99.90
5786;DHT22;2919;48.630;9.000;2023-04-03T00:54:54;3.00;99.90
5786;DHT22;2919;48.630;9.000;2023-04-03T00:57:22;3.10;99.90
5786;DHT22;2919;48.630;9.000;2023-04-03T00:59:57;3.10;99.90
5786;DHT22;2919;48.630;9.000;2023-04-03T01:02:24;3.00;99.90
5786;DHT22;2919;48.630;9.000;2023-04-03T01:04:51;3.00;99.90
5786;DHT22;2919;48.630;9.000;2023-04-03T01:07:23;3.00;99.90
5786;DHT22;2919;48.630;9.000;2023-04-03T01:09:53;3.00;99.90
5786;DHT22;2919;48.630;9.000;2023-04-03T01:15:03;3.00;99.90
5786;DHT22;2919;48.630;9.000;2023-04-03T01:25:32;2.90;99.90
5786;DHT22;2919;48.630;9.000;2023-04-03T01:27:57;2.90;99.90
5786;DHT22;2919;48.630;9.000;2023-04-03T01:30:28;2.90;99.90
5786;DHT22;2919;48.630;9.000;2023-04-03T01:32:56;2.90;99.90
5786;DHT22;2919;48.630;9.000;2023-04-03T01:35:22;2.90;99.90
5786;DHT22;2919;48.630;9.000;2023-04-03T01:37:47;2.90;99.90
5786;DHT22;2919;48.630;9.000;2023-04-03T01:40:13;2.90;99.90
5786;DHT22;2919;48.630;9.000;2023-04-03T01:42:39;2.80;99.90
5786;DHT22;2919;48.630;9.000;2023-04-03T01:45:05;2.80;99.90
5786;DHT22;2919;48.630;9.000;2023-04-03T01:47:30;2.80;99.90
5786;DHT22;2919;48.630;9.000;2023-04-03T01:49:56;2.80;99.90
5786;DHT22;2919;48.630;9.000;2023-04-03T01:52:22;2.80;99.90
5786;DHT22;2919;48.630;9.000;2023-04-03T01:54:47;2.80;99.90
5786;DHT22;2919;48.630;9.000;2023-04-03T01:57:13;2.70;99.90
5786;DHT22;2919;48.630;9.000;2023-04-03T01:59:40;2.70;99.90
5786;DHT22;2919;48.630;9.000;2023-04-03T02:02:06;2.70;99.90
5786;DHT22;2919;48.630;9.000;2023-04-03T02:04:31;2.70;99.90
5786;DHT22;2919;48.630;9.000;2023-04-03T02:06:57;2.70;99.90
5786;DHT22;2919;48.630;9.000;2023-04-03T02:09:22;2.70;99.90
5786;DHT22;2919;48.630;9.000;2023-04-03T02:11:48;2.70;99.90
5786;DHT22;2919;48.630;9.000;2023-04-03T02:14:14;2.70;99.90
5786;DHT22;2919;48.630;9.000;2023-04-03T02:16:39;2.70;99.90
5786;DHT22;2919;48.630;9.000;2023-04-03T02:19:05;2.60;99.90
5786;DHT22;2919;48.630;9.000;2023-04-03T02:21:30;2.60;99.90
5786;DHT22;2919;48.630;9.000;2023-04-03T02:23:56;2.50;99.90
5786;DHT22;2919;48.630;9.000;2023-04-03T02:26:22;2.50;99.90
5786;DHT22;2919;48.630;9.000;2023-04-03T02:28:47;2.50;99.90
5786;DHT22;2919;48.630;9.000;2023-04-03T02:31:13;2.50;99.90
5786;DHT22;2919;48.630;9.000;2023-04-03T02:33:39;2.50;99.90
5786;DHT22;2919;48.630;9.000;2023-04-03T02:36:05;2.50;99.90
5786;DHT22;2919;48.630;9.000;2023-04-03T02:38:32;2.50;99.90
5786;DHT22;2919;48.630;9.000;2023-04-03T02:41:03;2.60;99.90
5786;DHT22;2919;48.630;9.000;2023-04-03T02:43:30;2.70;99.90
5786;DHT22;2919;48.630;9.000;2023-04-03T02:45:56;2.60;99.90
5786;DHT22;2919;48.630;9.000;2023-04-03T02:48:22;2.50;99.90
5786;DHT22;2919;48.630;9.000;2023-04-03T02:50:48;2.50;99.90
5786;DHT22;2919;48.630;9.000;2023-04-03T02:53:13;2.50;99.90
5786;DHT22;2919;48.630;9.000;2023-04-03T02:55:39;2.50;99.90
5786;DHT22;2919;48.630;9.000;2023-04-03T02:58:05;2.50;99.90
5786;DHT22;2919;48.630;9.000;2023-04-03T03:00:31;2.50;99.90
5786;DHT22;2919;48.630;9.000;2023-04-03T03:02:56;2.60;99.90
5786;DHT22;2919;48.630;9.000;2023-04-03T03:05:22;2.50;99.90
5786;DHT22;2919;48.630;9.000;2023-04-03T03:07:48;2.50;99.90
5786;DHT22;2919;48.630;9.000;2023-04-03T03:10:13;2.50;99.90
5786;DHT22;2919;48.630;9.000;2023-04-03T03:12:39;2.50;99.90
5786;DHT22;2919;48.630;9.000;2023-04-03T03:15:06;2.60;99.90
5786;DHT22;2919;48.630;9.000;2023-04-03T03:17:32;2.60;99.90
5786;DHT22;2919;48.630;9.000;2023-04-03T03:19:57;2.70;99.90
5786;DHT22;2919;48.630;9.000;2023-04-03T03:22:23;2.60;99.90
5786;DHT22;2919;48.630;9.000;2023-04-03T03:24:49;2.60;99.90
5786;DHT22;2919;48.630;9.000;2023-04-03T03:27:15;2.60;99.90
5786;DHT22;2919;48.630;9.000;2023-04-03T03:29:41;2.60;99.90
5786;DHT22;2919;48.630;9.000;2023-04-03T03:32:07;2.60;99.90
5786;DHT22;2919;48.630;9.000;2023-04-03T03:34:33;2.60;99.90
5786;DHT22;2919;48.630;9.000;2023-04-03T03:36:59;2.60;99.90
5786;DHT22;2919;48.630;9.000;2023-04-03T03:39:24;2.60;99.90
5786;DHT22;2919;48.630;9.000;2023-04-03T03:41:50;2.60;99.90
5786;DHT22;2919;48.630;9.000;2023-04-03T03:44:16;2.60;99.90
5786;DHT22;2919;48.630;9.000;2023-04-03T03:46:41;2.60;99.90
5786;DHT22;2919;48.630;9.000;2023-04-03T03:49:07;2.50;99.90
5786;DHT22;2919;48.630;9.000;2023-04-03T03:51:32;2.60;99.90
5786;DHT22;2919;48.630;9.000;2023-04-03T03:53:58;2.50;99.90
5786;DHT22;2919;48.630;9.000;2023-04-03T03:56:24;2.50;99.90
5786;DHT22;2919;48.630;9.000;2023-04-03T03:58:50;2.50;99.90
5786;DHT22;2919;48.630;9.000;2023-04-03T04:01:16;2.50;99.90
5786;DHT22;2919;48.630;9.000;2023-04-03T04:03:42;2.60;99.90
5786;DHT22;2919;48.630;9.000;2023-04-03T04:06:08;2.60;99.90
5786;DHT22;2919;48.630;9.000;2023-04-03T04:08:34;2.60;99.90
5786;DHT22;2919;48.630;9.000;2023-04-03T04:10:59;2.60;99.90
5786;DHT22;2919;48.630;9.000;2023-04-03T04:13:25;2.70;99.90
5786;DHT22;2919;48.630;9.000;2023-04-03T04:15:50;2.50;99.90
5786;DHT22;2919;48.630;9.000;2023-04-03T04:18:16;2.50;99.90
5786;DHT22;2919;48.630;9.000;2023-04-03T04:20:45;2.50;99.90
5786;DHT22;2919;48.630;9.000;2023-04-03T04:23:11;2.50;99.90
5786;DHT22;2919;48.630;9.000;2023-04-03T04:25:36;2.50;99.90
5786;DHT22;2919;48.630;9.000;2023-04-03T04:28:02;2.60;99.90
5786;DHT22;2919;48.630;9.000;2023-04-03T04:30:28;2.50;99.90
5786;DHT22;2919;48.630;9.000;2023-04-03T04:32:53;2.50;99.90
5786;DHT22;2919;48.630;9.000;2023-04-03T04:35:19;2.60;99.90
5786;DHT22;2919;48.630;9.000;2023-04-03T04:37:45;2.50;99.90
5786;DHT22;2919;48.630;9.000;2023-04-03T04:40:11;2.50;99.90
5786;DHT22;2919;48.630;9.000;2023-04-03T04:42:36;2.50;99.90
5786;DHT22;2919;48.630;9.000;2023-04-03T04:45:02;2.50;99.90
5786;DHT22;2919;48.630;9.000;2023-04-03T04:47:29;2.50;99.90
5786;DHT22;2919;48.630;9.000;2023-04-03T04:49:55;2.70;99.90
5786;DHT22;2919;48.630;9.000;2023-04-03T04:52:20;2.50;99.90
5786;DHT22;2919;48.630;9.000;2023-04-03T04:54:46;2.50;99.90
5786;DHT22;2919;48.630;9.000;2023-04-03T04:57:12;2.50;99.90
5786;DHT22;2919;48.630;9.000;2023-04-03T04:59:37;2.60;99.90
5786;DHT22;2919;48.630;9.000;2023-04-03T05:02:03;2.60;99.90
5786;DHT22;2919;48.630;9.000;2023-04-03T05:04:29;2.50;99.90
5786;DHT22;2919;48.630;9.000;2023-04-03T05:06:54;2.60;99.90
5786;DHT22;2919;48.630;9.000;2023-04-03T05:09:20;2.50;99.90
5786;DHT22;2919;48.630;9.000;2023-04-03T05:11:46;2.50;99.90
5786;DHT22;2919;48.630;9.000;2023-04-03T05:14:12;2.50;99.90
5786;DHT22;2919;48.630;9.000;2023-04-03T05:16:37;2.50;99.90
5786;DHT22;2919;48.630;9.000;2023-04-03T05:19:03;2.60;99.90
5786;DHT22;2919;48.630;9.000;2023-04-03T05:21:29;2.60;99.90
5786;DHT22;2919;48.630;9.000;2023-04-03T05:24:01;2.60;99.90
5786;DHT22;2919;48.630;9.000;2023-04-03T05:26:29;2.70;99.90
5786;DHT22;2919;48.630;9.000;2023-04-03T05:28:55;2.60;99.90
5786;DHT22;2919;48.630;9.000;2023-04-03T05:31:21;2.70;99.90
5786;DHT22;2919;48.630;9.000;2023-04-03T05:33:46;2.60;99.90
5786;DHT22;2919;48.630;9.000;2023-04-03T05:36:12;2.60;99.90
5786;DHT22;2919;48.630;9.000;2023-04-03T05:38:38;2.70;99.90
5786;DHT22;2919;48.630;9.000;2023-04-03T05:41:05;2.70;99.90
5786;DHT22;2919;48.630;9.000;2023-04-03T05:43:31;2.80;99.90
5786;DHT22;2919;48.630;9.000;2023-04-03T05:45:56;2.80;99.90
5786;DHT22;2919;48.630;9.000;2023-04-03T05:48:22;2.70;99.90
5786;DHT22;2919;48.630;9.000;2023-04-03T05:50:48;3.00;99.90
5786;DHT22;2919;48.630;9.000;2023-04-03T05:53:22;2.80;99.90
5786;DHT22;2919;48.630;9.000;2023-04-03T05:55:49;2.90;99.90
5786;DHT22;2919;48.630;9.000;2023-04-03T05:58:15;2.90;99.90
5786;DHT22;2919;48.630;9.000;2023-04-03T06:00:41;2.90;99.90
5786;DHT22;2919;48.630;9.000;2023-04-03T06:03:06;3.00;99.60
5786;DHT22;2919;48.630;9.000;2023-04-03T06:05:32;2.90;99.10
5786;DHT22;2919;48.630;9.000;2023-04-03T06:07:58;3.00;98.60
5786;DHT22;2919;48.630;9.000;2023-04-03T06:10:23;3.00;98.80
5786;DHT22;2919;48.630;9.000;2023-04-03T06:12:50;3.00;99.00
5786;DHT22;2919;48.630;9.000;2023-04-03T06:15:15;3.10;98.60
5786;DHT22;2919;48.630;9.000;2023-04-03T06:17:42;3.20;98.70
5786;DHT22;2919;48.630;9.000;2023-04-03T06:20:08;3.20;98.30
5786;DHT22;2919;48.630;9.000;2023-04-03T06:22:35;3.10;98.30
5786;DHT22;2919;48.630;9.000;2023-04-03T06:25:01;3.20;98.10
5786;DHT22;2919;48.630;9.000;2023-04-03T06:27:27;3.20;98.20
5786;DHT22;2919;48.630;9.000;2023-04-03T06:29:53;3.20;98.10
5786;DHT22;2919;48.630;9.000;2023-04-03T06:32:18;3.20;98.40
5786;DHT22;2919;48.630;9.000;2023-04-03T06:34:44;3.20;98.60
5786;DHT22;2919;48.630;9.000;2023-04-03T06:37:16;3.30;99.00
5786;DHT22;2919;48.630;9.000;2023-04-03T06:39:43;3.30;98.70
5786;DHT22;2919;48.630;9.000;2023-04-03T06:42:08;3.40;99.00
5786;DHT22;2919;48.630;9.000;2023-04-03T06:44:34;3.40;99.10
5786;DHT22;2919;48.630;9.000;2023-04-03T06:47:00;3.40;99.00
5786;DHT22;2919;48.630;9.000;2023-04-03T06:49:26;3.40;99.00
5786;DHT22;2919;48.630;9.000;2023-04-03T06:51:51;3.40;99.10
5786;DHT22;2919;48.630;9.000;2023-04-03T06:54:17;3.40;99.50
5786;DHT22;2919;48.630;9.000;2023-04-03T06:56:43;3.50;99.00
5786;DHT22;2919;48.630;9.000;2023-04-03T06:59:10;3.60;99.00
5786;DHT22;2919;48.630;9.000;2023-04-03T07:01:37;3.60;98.70
5786;DHT22;2919;48.630;9.000;2023-04-03T07:04:03;3.60;98.70
5786;DHT22;2919;48.630;9.000;2023-04-03T07:06:29;3.60;98.30
5786;DHT22;2919;48.630;9.000;2023-04-03T07:08:56;3.50;98.80
5786;DHT22;2919;48.630;9.000;2023-04-03T07:11:22;3.60;98.60
5786;DHT22;2919;48.630;9.000;2023-04-03T07:13:48;3.70;98.60
5786;DHT22;2919;48.630;9.000;2023-04-03T07:16:13;3.80;98.40
5786;DHT22;2919;48.630;9.000;2023-04-03T07:18:39;3.90;98.30
5786;DHT22;2919;48.630;9.000;2023-04-03T07:21:05;3.90;98.20
5786;DHT22;2919;48.630;9.000;2023-04-03T07:23:31;3.90;98.00
5786;DHT22;2919;48.630;9.000;2023-04-03T07:25:57;4.00;98.00
5786;DHT22;2919;48.630;9.000;2023-04-03T07:28:22;4.00;98.00
5786;DHT22;2919;48.630;9.000;2023-04-03T07:30:53;4.00;98.00
5786;DHT22;2919;48.630;9.000;2023-04-03T07:33:22;4.10;98.10
5786;DHT22;2919;48.630;9.000;2023-04-03T07:35:48;4.10;98.00
5786;DHT22;2919;48.630;9.000;2023-04-03T07:38:14;4.20;98.00
5786;DHT22;2919;48.630;9.000;2023-04-03T07:40:39;4.20;98.00
5786;DHT22;2919;48.630;9.000;2023-04-03T07:43:06;4.80;98.30
5786;DHT22;2919;48.630;9.000;2023-04-03T07:45:34;5.40;96.90
5786;DHT22;2919;48.630;9.000;2023-04-03T07:48:00;5.60;96.20
5786;DHT22;2919;48.630;9.000;2023-04-03T07:50:26;5.60;96.20
5786;DHT22;2919;48.630;9.000;2023-04-03T07:52:52;5.30;96.30
5786;DHT22;2919;48.630;9.000;2023-04-03T07:55:19;5.30;96.30
5786;DHT22;2919;48.630;9.000;2023-04-03T07:57:45;5.40;96.40
5786;DHT22;2919;48.630;9.000;2023-04-03T08:00:12;5.60;97.10
5786;DHT22;2919;48.630;9.000;2023-04-03T08:02:38;5.60;96.10
5786;DHT22;2919;48.630;9.000;2023-04-03T08:05:04;5.90;95.40
5786;DHT22;2919;48.630;9.000;2023-04-03T08:07:29;5.90;95.40
5786;DHT22;2919;48.630;9.000;2023-04-03T08:09:55;6.00;95.70
5786;DHT22;2919;48.630;9.000;2023-04-03T08:12:21;5.90;95.40
5786;DHT22;2919;48.630;9.000;2023-04-03T08:14:46;5.90;95.60
5786;DHT22;2919;48.630;9.000;2023-04-03T08:17:12;5.90;95.20
5786;DHT22;2919;48.630;9.000;2023-04-03T08:19:39;5.90;95.30
5786;DHT22;2919;48.630;9.000;2023-04-03T08:22:05;5.80;95.00
5786;DHT22;2919;48.630;9.000;2023-04-03T08:24:32;5.80;95.40
5786;DHT22;2919;48.630;9.000;2023-04-03T08:26:58;5.70;95.90
5786;DHT22;2919;48.630;9.000;2023-04-03T08:29:24;5.40;96.20
5786;DHT22;2919;48.630;9.000;2023-04-03T08:31:50;5.30;96.40
5786;DHT22;2919;48.630;9.000;2023-04-03T08:34:16;5.60;96.10
5786;DHT22;2919;48.630;9.000;2023-04-03T08:36:43;5.70;96.40
5786;DHT22;2919;48.630;9.000;2023-04-03T08:39:09;5.90;96.40
5786;DHT22;2919;48.630;9.000;2023-04-03T08:41:40;6.20;95.50
5786;DHT22;2919;48.630;9.000;2023-04-03T08:54:54;5.80;94.60
5786;DHT22;2919;48.630;9.000;2023-04-03T08:57:42;5.70;95.20
5786;DHT22;2919;48.630;9.000;2023-04-03T09:02:45;5.40;95.10
5786;DHT22;2919;48.630;9.000;2023-04-03T09:05:33;5.40;95.10
5786;DHT22;2919;48.630;9.000;2023-04-03T09:08:12;5.30;95.20
5786;DHT22;2919;48.630;9.000;2023-04-03T09:10:41;5.30;95.30
5786;DHT22;2919;48.630;9.000;2023-04-03T09:13:43;5.30;95.80
5786;DHT22;2919;48.630;9.000;2023-04-03T09:22:16;5.10;95.80
5786;DHT22;2919;48.630;9.000;2023-04-03T09:24:45;5.30;95.30
5786;DHT22;2919;48.630;9.000;2023-04-03T09:27:12;5.30;95.00
5786;DHT22;2919;48.630;9.000;2023-04-03T09:29:43;5.40;95.00
5786;DHT22;2919;48.630;9.000;2023-04-03T09:35:42;5.50;94.60
5786;DHT22;2919;48.630;9.000;2023-04-03T09:37:52;5.50;95.20
5786;DHT22;2919;48.630;9.000;2023-04-03T09:40:32;5.60;94.10
5786;DHT22;2919;48.630;9.000;2023-04-03T09:43:02;5.70;93.90
5786;DHT22;2919;48.630;9.000;2023-04-03T09:45:34;5.80;93.80
5786;DHT22;2919;48.630;9.000;2023-04-03T09:51:23;5.60;93.60
5786;DHT22;2919;48.630;9.000;2023-04-03T09:55:56;5.60;93.80
5786;DHT22;2919;48.630;9.000;2023-04-03T09:58:29;5.50;93.90
5786;DHT22;2919;48.630;9.000;2023-04-03T10:00:57;5.40;93.80
5786;DHT22;2919;48.630;9.000;2023-04-03T10:03:34;5.50;94.20
5786;DHT22;2919;48.630;9.000;2023-04-03T10:06:03;5.30;93.70
5786;DHT22;2919;48.630;9.000;2023-04-03T10:08:33;5.30;93.70
5786;DHT22;2919;48.630;9.000;2023-04-03T10:11:15;5.30;94.30
5786;DHT22;2919;48.630;9.000;2023-04-03T10:13:59;5.20;94.50
5786;DHT22;2919;48.630;9.000;2023-04-03T10:22:41;5.40;93.50
5786;DHT22;2919;48.630;9.000;2023-04-03T10:27:56;5.50;93.40
5786;DHT22;2919;48.630;9.000;2023-04-03T10:30:50;5.60;93.30
5786;DHT22;2919;48.630;9.000;2023-04-03T10:36:24;5.70;93.30
5786;DHT22;2919;48.630;9.000;2023-04-03T10:39:17;5.60;92.40
5786;DHT22;2919;48.630;9.000;2023-04-03T10:44:26;5.80;92.30
5786;DHT22;2919;48.630;9.000;2023-04-03T10:58:43;5.90;92.30
5786;DHT22;2919;48.630;9.000;2023-04-03T11:01:15;5.90;92.20
5786;DHT22;2919;48.630;9.000;2023-04-03T11:03:45;5.90;92.10
5786;DHT22;2919;48.630;9.000;2023-04-03T11:06:15;5.80;92.40
5786;DHT22;2919;48.630;9.000;2023-04-03T11:09:00;6.00;91.80
5786;DHT22;2919;48.630;9.000;2023-04-03T11:11:34;6.10;92.00
5786;DHT22;2919;48.630;9.000;2023-04-03T11:14:09;6.10;91.90
5786;DHT22;2919;48.630;9.000;2023-04-03T11:16:43;6.20;90.80
5786;DHT22;2919;48.630;9.000;2023-04-03T11:19:21;6.30;90.90
5786;DHT22;2919;48.630;9.000;2023-04-03T11:22:04;6.40;90.40
5786;DHT22;2919;48.630;9.000;2023-04-03T11:24:36;6.40;90.90
5786;DHT22;2919;48.630;9.000;2023-04-03T11:27:05;6.30;91.50
5786;DHT22;2919;48.630;9.000;2023-04-03T11:29:38;6.20;91.10
5786;DHT22;2919;48.630;9.000;2023-04-03T11:32:45;6.30;90.90
5786;DHT22;2919;48.630;9.000;2023-04-03T11:35:14;6.10;91.00
5786;DHT22;2919;48.630;9.000;2023-04-03T11:37:45;6.30;91.30
5786;DHT22;2919;48.630;9.000;2023-04-03T11:42:42;6.30;91.40
5786;DHT22;2919;48.630;9.000;2023-04-03T11:47:50;6.20;91.30
5786;DHT22;2919;48.630;9.000;2023-04-03T12:16:20;5.80;91.30
5786;DHT22;2919;48.630;9.000;2023-04-03T12:24:02;6.20;90.10
5786;DHT22;2919;48.630;9.000;2023-04-03T12:31:55;6.70;86.10
5786;DHT22;2919;48.630;9.000;2023-04-03T12:37:54;6.40;85.60
5786;DHT22;2919;48.630;9.000;2023-04-03T12:48:18;5.90;86.10
5786;DHT22;2919;48.630;9.000;2023-04-03T12:50:47;5.90;87.20
5786;DHT22;2919;48.630;9.000;2023-04-03T12:53:23;5.90;87.40
5786;DHT22;2919;48.630;9.000;2023-04-03T12:56:35;5.80;89.30
5786;DHT22;2919;48.630;9.000;2023-04-03T13:01:39;5.70;90.40
5786;DHT22;2919;48.630;9.000;2023-04-03T13:04:05;5.80;89.50
5786;DHT22;2919;48.630;9.000;2023-04-03T13:06:36;5.90;90.30
5786;DHT22;2919;48.630;9.000;2023-04-03T13:09:03;6.00;90.40
5786;DHT22;2919;48.630;9.000;2023-04-03T13:11:38;6.30;90.00
5786;DHT22;2919;48.630;9.000;2023-04-03T13:14:18;6.40;90.40
5786;DHT22;2919;48.630;9.000;2023-04-03T13:17:05;6.70;90.00
5786;DHT22;2919;48.630;9.000;2023-04-03T13:19:34;6.80;86.40
5786;DHT22;2919;48.630;9.000;2023-04-03T13:24:52;6.80;87.40
5786;DHT22;2919;48.630;9.000;2023-04-03T13:27:18;6.60;87.50
5786;DHT22;2919;48.630;9.000;2023-04-03T13:29:50;6.50;85.60
5786;DHT22;2919;48.630;9.000;2023-04-03T13:32:20;6.30;85.00
5786;DHT22;2919;48.630;9.000;2023-04-03T13:34:47;6.20;84.90
5786;DHT22;2919;48.630;9.000;2023-04-03T13:40:01;6.10;84.60
5786;DHT22;2919;48.630;9.000;2023-04-03T13:42:30;6.20;84.00
5786;DHT22;2919;48.630;9.000;2023-04-03T13:47:40;6.50;82.50
5786;DHT22;2919;48.630;9.000;2023-04-03T13:50:21;6.50;81.00
5786;DHT22;2919;48.630;9.000;2023-04-03T13:55:34;6.60;79.60
5786;DHT22;2919;48.630;9.000;2023-04-03T14:02:58;6.50;82.60
5786;DHT22;2919;48.630;9.000;2023-04-03T14:05:24;6.50;83.30
5786;DHT22;2919;48.630;9.000;2023-04-03T14:07:53;6.40;84.20
5786;DHT22;2919;48.630;9.000;2023-04-03T14:10:19;6.40;83.80
5786;DHT22;2919;48.630;9.000;2023-04-03T14:12:44;6.40;83.90
5786;DHT22;2919;48.630;9.000;2023-04-03T14:15:27;6.30;84.40
5786;DHT22;2919;48.630;9.000;2023-04-03T14:17:53;6.30;85.00
5786;DHT22;2919;48.630;9.000;2023-04-03T14:20:23;6.20;84.30
5786;DHT22;2919;48.630;9.000;2023-04-03T14:22:50;6.20;85.20
5786;DHT22;2919;48.630;9.000;2023-04-03T14:25:17;6.20;83.70
5786;DHT22;2919;48.630;9.000;2023-04-03T14:27:46;6.20;84.10
5786;DHT22;2919;48.630;9.000;2023-04-03T14:30:23;6.30;83.10
5786;DHT22;2919;48.630;9.000;2023-04-03T14:32:49;6.40;83.80
5786;DHT22;2919;48.630;9.000;2023-04-03T14:35:16;6.40;84.50
5786;DHT22;2919;48.630;9.000;2023-04-03T14:37:42;6.50;82.90
5786;DHT22;2919;48.630;9.000;2023-04-03T14:40:11;6.60;83.30
5786;DHT22;2919;48.630;9.000;2023-04-03T14:42:38;6.60;82.30
5786;DHT22;2919;48.630;9.000;2023-04-03T14:45:06;6.60;82.90
5786;DHT22;2919;48.630;9.000;2023-04-03T14:47:33;6.60;82.40
5786;DHT22;2919;48.630;9.000;2023-04-03T14:50:03;6.60;83.10
5786;DHT22;2919;48.630;9.000;2023-04-03T14:52:33;6.60;81.70
5786;DHT22;2919;48.630;9.000;2023-04-03T14:55:00;6.60;80.90
5786;DHT22;2919;48.630;9.000;2023-04-03T14:57:27;6.70;80.20
5786;DHT22;2919;48.630;9.000;2023-04-03T14:59:53;6.60;80.40
5786;DHT22;2919;48.630;9.000;2023-04-03T15:02:34;6.50;81.70
5786;DHT22;2919;48.630;9.000;2023-04-03T15:05:02;6.50;82.90
5786;DHT22;2919;48.630;9.000;2023-04-03T15:07:32;6.50;82.50
5786;DHT22;2919;48.630;9.000;2023-04-03T15:10:03;6.40;82.50
5786;DHT22;2919;48.630;9.000;2023-04-03T15:12:32;6.40;83.30
5786;DHT22;2919;48.630;9.000;2023-04-03T15:14:57;6.30;82.30
5786;DHT22;2919;48.630;9.000;2023-04-03T15:17:23;6.30;83.40
5786;DHT22;2919;48.630;9.000;2023-04-03T15:19:49;6.20;82.90
5786;DHT22;2919;48.630;9.000;2023-04-03T15:22:17;6.20;83.20
5786;DHT22;2919;48.630;9.000;2023-04-03T15:24:43;6.20;83.60
5786;DHT22;2919;48.630;9.000;2023-04-03T15:27:10;6.10;82.30
5786;DHT22;2919;48.630;9.000;2023-04-03T15:29:37;6.00;83.00
5786;DHT22;2919;48.630;9.000;2023-04-03T15:32:03;6.10;84.00
5786;DHT22;2919;48.630;9.000;2023-04-03T15:34:29;6.40;83.50
5786;DHT22;2919;48.630;9.000;2023-04-03T15:36:54;6.60;83.30
5786;DHT22;2919;48.630;9.000;2023-04-03T15:39:21;6.90;81.70
5786;DHT22;2919;48.630;9.000;2023-04-03T15:41:48;7.10;80.10
5786;DHT22;2919;48.630;9.000;2023-04-03T15:44:14;7.10;80.70
5786;DHT22;2919;48.630;9.000;2023-04-03T15:46:43;7.00;81.10
5786;DHT22;2919;48.630;9.000;2023-04-03T15:49:09;6.80;80.30
5786;DHT22;2919;48.630;9.000;2023-04-03T15:51:35;6.60;79.60
5786;DHT22;2919;48.630;9.000;2023-04-03T15:54:01;6.50;80.30
5786;DHT22;2919;48.630;9.000;2023-04-03T15:56:26;6.40;81.20
5786;DHT22;2919;48.630;9.000;2023-04-03T15:58:52;6.40;82.20
5786;DHT22;2919;48.630;9.000;2023-04-03T16:01:18;6.20;80.50
5786;DHT22;2919;48.630;9.000;2023-04-03T16:03:44;6.20;80.30
5786;DHT22;2919;48.630;9.000;2023-04-03T16:06:12;6.10;80.80
5786;DHT22;2919;48.630;9.000;2023-04-03T16:08:38;6.10;80.80
5786;DHT22;2919;48.630;9.000;2023-04-03T16:11:04;6.00;79.60
5786;DHT22;2919;48.630;9.000;2023-04-03T16:13:29;6.00;80.10
5786;DHT22;2919;48.630;9.000;2023-04-03T16:15:56;5.90;79.70
5786;DHT22;2919;48.630;9.000;2023-04-03T16:18:21;5.90;79.40
5786;DHT22;2919;48.630;9.000;2023-04-03T16:20:47;5.90;80.10
5786;DHT22;2919;48.630;9.000;2023-04-03T16:23:13;5.80;79.80
5786;DHT22;2919;48.630;9.000;2023-04-03T16:25:39;5.80;79.60
5786;DHT22;2919;48.630;9.000;2023-04-03T16:28:05;5.80;79.30
5786;DHT22;2919;48.630;9.000;2023-04-03T16:30:31;5.70;78.60
5786;DHT22;2919;48.630;9.000;2023-04-03T16:32:58;5.60;79.90
5786;DHT22;2919;48.630;9.000;2023-04-03T16:35:23;5.50;80.00
5786;DHT22;2919;48.630;9.000;2023-04-03T16:37:49;5.60;79.70
5786;DHT22;2919;48.630;9.000;2023-04-03T16:40:15;5.60;80.70
5786;DHT22;2919;48.630;9.000;2023-04-03T16:42:41;5.50;79.70
5786;DHT22;2919;48.630;9.000;2023-04-03T16:45:07;5.60;79.90
5786;DHT22;2919;48.630;9.000;2023-04-03T16:47:33;5.60;79.90
5786;DHT22;2919;48.630;9.000;2023-04-03T16:49:58;5.60;80.00
5786;DHT22;2919;48.630;9.000;2023-04-03T16:52:24;5.60;80.00
5786;DHT22;2919;48.630;9.000;2023-04-03T16:54:50;5.70;80.00
5786;DHT22;2919;48.630;9.000;2023-04-03T16:57:21;5.60;80.50
5786;DHT22;2919;48.630;9.000;2023-04-03T16:59:47;5.60;80.00
5786;DHT22;2919;48.630;9.000;2023-04-03T17:02:12;5.60;78.80
5786;DHT22;2919;48.630;9.000;2023-04-03T17:04:38;5.50;78.40
5786;DHT22;2919;48.630;9.000;2023-04-03T17:07:04;5.50;78.20
5786;DHT22;2919;48.630;9.000;2023-04-03T17:09:32;5.40;77.60
5786;DHT22;2919;48.630;9.000;2023-04-03T17:11:58;5.30;77.30
5786;DHT22;2919;48.630;9.000;2023-04-03T17:14:24;5.30;78.50
5786;DHT22;2919;48.630;9.000;2023-04-03T17:16:50;5.20;78.60
5786;DHT22;2919;48.630;9.000;2023-04-03T17:19:16;5.10;77.80
5786;DHT22;2919;48.630;9.000;2023-04-03T17:21:42;5.10;78.60
5786;DHT22;2919;48.630;9.000;2023-04-03T17:24:10;5.10;78.80
5786;DHT22;2919;48.630;9.000;2023-04-03T17:26:39;5.10;79.10
5786;DHT22;2919;48.630;9.000;2023-04-03T17:29:05;5.00;78.90
5786;DHT22;2919;48.630;9.000;2023-04-03T17:31:31;5.00;79.60
5786;DHT22;2919;48.630;9.000;2023-04-03T17:33:57;5.00;78.60
5786;DHT22;2919;48.630;9.000;2023-04-03T17:36:29;5.00;78.70
5786;DHT22;2919;48.630;9.000;2023-04-03T17:38:54;5.00;79.60
5786;DHT22;2919;48.630;9.000;2023-04-03T17:41:20;5.00;78.10
5786;DHT22;2919;48.630;9.000;2023-04-03T17:43:46;5.00;78.40
5786;DHT22;2919;48.630;9.000;2023-04-03T17:46:12;5.00;78.50
5786;DHT22;2919;48.630;9.000;2023-04-03T17:48:39;5.00;78.90
5786;DHT22;2919;48.630;9.000;2023-04-03T17:51:13;4.90;78.80
5786;DHT22;2919;48.630;9.000;2023-04-03T17:53:40;4.90;79.40
5786;DHT22;2919;48.630;9.000;2023-04-03T17:56:08;4.90;79.80
5786;DHT22;2919;48.630;9.000;2023-04-03T17:58:35;4.90;78.90
5786;DHT22;2919;48.630;9.000;2023-04-03T18:01:13;4.80;79.10
5786;DHT22;2919;48.630;9.000;2023-04-03T18:03:40;4.80;80.40
5786;DHT22;2919;48.630;9.000;2023-04-03T18:06:09;4.80;80.50
5786;DHT22;2919;48.630;9.000;2023-04-03T18:08:39;4.80;80.20
5786;DHT22;2919;48.630;9.000;2023-04-03T18:11:05;4.70;81.30
5786;DHT22;2919;48.630;9.000;2023-04-03T18:13:31;4.70;80.90
5786;DHT22;2919;48.630;9.000;2023-04-03T18:15:57;4.70;81.80
5786;DHT22;2919;48.630;9.000;2023-04-03T18:18:23;4.80;81.30
5786;DHT22;2919;48.630;9.000;2023-04-03T18:20:48;4.70;81.40
5786;DHT22;2919;48.630;9.000;2023-04-03T18:23:16;4.70;81.60
5786;DHT22;2919;48.630;9.000;2023-04-03T18:25:42;4.70;82.00
5786;DHT22;2919;48.630;9.000;2023-04-03T18:28:08;4.70;82.30
5786;DHT22;2919;48.630;9.000;2023-04-03T18:30:34;4.70;81.90
5786;DHT22;2919;48.630;9.000;2023-04-03T18:33:00;4.70;81.10
5786;DHT22;2919;48.630;9.000;2023-04-03T18:35:26;4.60;81.50
5786;DHT22;2919;48.630;9.000;2023-04-03T18:37:52;4.60;82.10
5786;DHT22;2919;48.630;9.000;2023-04-03T18:40:17;4.60;82.00